createdAt,value
2022-08-03T06:41:12.125Z,13.93
2022-08-03T07:03:52.308Z,11.95
2022-08-03T07:06:20.096Z,13.10
2022-08-03T07:08:51.833Z,18.48
2022-08-03T07:11:20.438Z,16.20
2022-08-03T07:16:15.132Z,14.15
2022-08-03T07:28:36.278Z,18.10
2022-08-03T07:31:03.889Z,15.20
2022-08-03T07:33:31.345Z,13.68
2022-08-03T07:35:58.731Z,14.02
2022-08-03T07:38:26.196Z,11.20
2022-08-03T07:40:54.466Z,14.80
2022-08-03T07:43:21.892Z,12.02
2022-08-03T07:45:50.677Z,13.75
2022-08-03T07:48:18.096Z,15.57
2022-08-03T07:50:46.157Z,13.20
2022-08-03T07:53:13.637Z,12.32
2022-08-03T07:55:41.042Z,13.63
2022-08-03T07:58:09.828Z,15.93
2022-08-03T08:00:37.797Z,13.02
2022-08-03T08:03:06.679Z,11.80
2022-08-03T08:05:34.175Z,12.67
2022-08-03T08:08:01.623Z,10.52
2022-08-03T08:10:29.271Z,12.82
2022-08-03T08:12:57.142Z,12.93
2022-08-03T08:15:24.693Z,11.32
2022-08-03T08:17:53.480Z,15.48
2022-08-03T08:20:27.929Z,10.82
2022-08-03T08:22:59.524Z,12.17
2022-08-03T08:25:29.028Z,11.50
2022-08-03T08:28:30.758Z,12.05
2022-08-03T08:30:44.054Z,12.52
2022-08-03T08:33:23.131Z,12.60
2022-08-03T08:35:53.057Z,12.05
2022-08-03T08:38:20.512Z,13.63
2022-08-03T08:40:48.855Z,13.23
2022-08-03T08:43:16.319Z,10.75
2022-08-03T08:45:43.849Z,13.33
2022-08-03T08:48:11.970Z,10.75
2022-08-03T08:50:39.910Z,13.82
2022-08-03T08:53:17.342Z,12.43
2022-08-03T08:55:58.699Z,11.57
2022-08-03T08:58:29.531Z,11.27
2022-08-03T09:00:57.174Z,12.43
2022-08-03T09:03:29.560Z,13.50
2022-08-03T09:05:58.530Z,11.63
2022-08-03T09:08:27.347Z,10.43
2022-08-03T09:10:54.768Z,10.65
2022-08-03T09:13:22.225Z,12.45
2022-08-03T09:16:00.830Z,11.75
2022-08-03T09:18:32.398Z,11.48
2022-08-03T09:21:30.178Z,10.35
2022-08-03T09:24:05.885Z,9.75
2022-08-03T09:26:35.299Z,10.57
2022-08-03T09:29:08.109Z,12.03
2022-08-03T09:31:39.504Z,12.68
2022-08-03T09:34:11.720Z,11.63
2022-08-03T09:36:40.156Z,9.67
2022-08-03T09:39:11.060Z,12.65
2022-08-03T09:41:44.526Z,14.03
2022-08-03T09:44:24.596Z,12.80
2022-08-03T09:46:54.753Z,11.52
2022-08-03T09:49:22.209Z,10.38
2022-08-03T09:52:32.822Z,9.90
2022-08-03T09:54:38.476Z,8.80
2022-08-03T09:57:06.089Z,10.65
2022-08-03T09:59:34.122Z,8.10
2022-08-03T10:02:02.101Z,10.00
2022-08-03T10:04:29.859Z,9.18
2022-08-03T10:09:54.477Z,10.33
2022-08-03T10:12:22.228Z,9.18
2022-08-03T10:14:49.789Z,12.60
2022-08-03T10:17:17.480Z,11.20
2022-08-03T10:19:45.327Z,11.18
2022-08-03T10:22:14.186Z,11.57
2022-08-03T10:24:47.198Z,12.73
2022-08-03T10:27:16.727Z,11.07
2022-08-03T10:29:46.547Z,11.57
2022-08-03T10:32:16.871Z,10.32
2022-08-03T10:34:45.210Z,10.82
2022-08-03T10:37:14.752Z,10.50
2022-08-03T10:39:53.407Z,10.82
2022-08-03T10:42:24.214Z,11.63
2022-08-03T10:44:56.113Z,9.63
2022-08-03T10:47:23.606Z,10.23
2022-08-03T10:49:51.244Z,11.55
2022-08-03T10:52:30.371Z,9.25
2022-08-03T10:55:18.834Z,9.13
2022-08-03T10:57:52.571Z,8.85
2022-08-03T11:00:27.232Z,8.50
2022-08-03T11:03:06.207Z,9.25
2022-08-03T11:05:34.613Z,8.33
2022-08-03T11:08:19.401Z,10.10
2022-08-03T11:10:46.944Z,10.32
2022-08-03T11:13:16.996Z,8.90
2022-08-03T11:15:45.821Z,9.30
2022-08-03T11:18:14.310Z,9.60
2022-08-03T11:20:45.327Z,10.85
2022-08-03T11:23:12.810Z,7.47
2022-08-03T11:25:58.645Z,10.05
2022-08-03T11:28:28.299Z,8.60
2022-08-03T11:30:55.704Z,9.55
2022-08-03T11:33:32.402Z,9.98
2022-08-03T11:36:00.589Z,8.32
2022-08-03T11:38:28.084Z,8.95
2022-08-03T11:40:55.557Z,8.05
2022-08-03T11:43:45.224Z,9.55
2022-08-03T11:46:29.883Z,9.52
2022-08-03T11:49:09.287Z,9.63
2022-08-03T11:51:38.720Z,11.83
2022-08-03T11:54:06.941Z,7.97
2022-08-03T11:56:45.431Z,8.60
2022-08-03T11:59:18.546Z,8.13
2022-08-03T12:01:49.819Z,7.80
2022-08-03T12:04:17.265Z,8.57
2022-08-03T12:06:59.187Z,7.35
2022-08-03T12:09:26.657Z,6.35
2022-08-03T12:11:59.605Z,9.05
2022-08-03T12:14:50.075Z,8.45
2022-08-03T12:17:17.720Z,8.13
2022-08-03T12:19:45.728Z,10.25
2022-08-03T12:22:13.555Z,7.43
2022-08-03T12:24:41.937Z,6.75
2022-08-03T12:27:09.327Z,9.77
2022-08-03T12:29:36.872Z,8.60
2022-08-03T12:32:04.376Z,9.55
2022-08-03T12:34:48.265Z,9.23
2022-08-03T12:37:19.312Z,8.68
2022-08-03T12:40:02.981Z,9.57
2022-08-03T12:42:34.964Z,8.82
2022-08-03T12:45:17.540Z,7.15
2022-08-03T12:47:55.105Z,9.73
2022-08-03T12:50:31.305Z,8.10
2022-08-03T12:52:59.858Z,8.27
2022-08-03T12:55:56.319Z,7.28
2022-08-03T12:58:33.273Z,9.03
2022-08-03T13:01:00.787Z,8.65
2022-08-03T13:03:42.716Z,8.55
2022-08-03T13:06:15.338Z,7.72
2022-08-03T13:08:43.349Z,9.80
2022-08-03T13:11:50.642Z,9.65
2022-08-03T13:14:17.380Z,9.60
2022-08-03T13:16:47.300Z,10.27
2022-08-03T13:19:15.621Z,9.43
2022-08-03T13:21:53.561Z,8.20
2022-08-03T13:24:32.119Z,8.98
2022-08-03T13:26:59.543Z,11.75
2022-08-03T13:29:27.052Z,8.52
2022-08-03T13:31:54.566Z,11.23
2022-08-03T13:34:23.950Z,9.13
2022-08-03T13:37:08.918Z,12.23
2022-08-03T13:39:58.078Z,9.70
2022-08-03T13:42:24.553Z,9.45
2022-08-03T13:44:51.940Z,9.40
2022-08-03T13:47:20.385Z,8.43
2022-08-03T13:49:54.258Z,10.25
2022-08-03T13:52:30.741Z,11.60
2022-08-03T13:54:58.515Z,9.25
2022-08-03T13:58:03.515Z,7.22
2022-08-03T14:00:26.566Z,8.32
2022-08-03T14:03:01.785Z,9.85
2022-08-03T14:05:31.968Z,8.80
2022-08-03T14:08:04.773Z,9.13
2022-08-03T14:10:32.814Z,8.50
2022-08-03T14:13:00.757Z,10.90
2022-08-03T14:15:28.656Z,8.17
2022-08-03T14:17:58.577Z,9.18
2022-08-03T14:20:38.609Z,8.37
2022-08-03T14:23:15.438Z,8.93
2022-08-03T14:25:49.906Z,7.80
2022-08-03T14:28:18.255Z,8.70
2022-08-03T14:30:45.752Z,7.55
2022-08-03T14:33:13.141Z,7.20
2022-08-03T14:35:40.568Z,10.85
2022-08-03T14:38:08.047Z,8.20
2022-08-03T14:40:36.796Z,9.13
2022-08-03T14:43:04.324Z,8.57
2022-08-03T14:45:31.688Z,7.07
2022-08-03T14:50:34.340Z,7.97
2022-08-03T14:50:51.495Z,7.22
2022-08-03T14:53:19.512Z,7.43
2022-08-03T14:55:50.660Z,7.03
2022-08-03T14:58:23.719Z,8.80
2022-08-03T15:00:51.634Z,7.30
2022-08-03T15:03:20.346Z,11.00
2022-08-03T15:05:47.986Z,8.13
2022-08-03T15:08:15.408Z,9.02
2022-08-03T15:10:44.624Z,7.00
2022-08-03T15:13:14.077Z,8.05
2022-08-03T15:15:43.350Z,7.60
2022-08-03T15:18:10.764Z,10.25
2022-08-03T15:20:46.662Z,8.88
2022-08-03T15:23:14.962Z,8.27
2022-08-03T15:26:07.092Z,10.05
2022-08-03T15:28:31.298Z,7.43
2022-08-03T15:30:58.796Z,11.32
2022-08-03T15:33:26.259Z,6.70
2022-08-03T15:35:53.749Z,7.40
2022-08-03T15:38:22.925Z,10.07
2022-08-03T15:40:54.430Z,6.72
2022-08-03T15:43:21.931Z,7.22
2022-08-03T15:46:12.787Z,8.45
2022-08-03T15:48:38.257Z,8.10
2022-08-03T15:51:06.175Z,8.47
2022-08-03T15:53:34.273Z,7.20
2022-08-03T15:56:04.219Z,5.20
2022-08-03T15:59:10.002Z,6.60
2022-08-03T16:01:25.139Z,6.70
2022-08-03T16:03:52.596Z,5.65
2022-08-03T16:06:29.555Z,7.30
2022-08-03T16:09:02.460Z,6.30
2022-08-03T16:11:29.904Z,6.43
2022-08-03T16:14:12.963Z,6.28
2022-08-03T16:16:46.013Z,6.37
2022-08-03T16:19:14.183Z,7.22
2022-08-03T16:21:48.575Z,4.55
2022-08-03T16:24:26.823Z,5.50
2022-08-03T16:26:55.821Z,6.10
2022-08-03T16:29:23.781Z,4.43
2022-08-03T16:31:53.209Z,6.13
2022-08-03T16:34:22.868Z,4.18
2022-08-03T16:36:50.307Z,5.78
2022-08-03T16:39:17.744Z,6.55
2022-08-03T16:41:53.923Z,4.93
2022-08-03T16:44:28.676Z,3.83
2022-08-03T17:12:10.995Z,5.03
2022-08-03T17:19:34.846Z,7.05
2022-08-03T17:27:01.822Z,6.40
2022-08-03T17:29:32.665Z,5.80
2022-08-03T17:32:06.559Z,5.82
2022-08-03T17:34:37.295Z,5.07
2022-08-03T17:37:06.274Z,5.60
2022-08-03T17:42:29.536Z,5.05
2022-08-03T17:45:02.502Z,5.78
2022-08-03T17:47:42.838Z,7.38
2022-08-03T17:50:24.607Z,5.50
2022-08-03T17:52:55.370Z,5.38
2022-08-03T17:55:55.894Z,6.43
2022-08-03T17:58:14.942Z,3.67
2022-08-03T18:01:01.972Z,6.70
2022-08-03T18:03:58.157Z,7.50
2022-08-03T18:06:28.838Z,5.00
2022-08-03T18:32:00.435Z,7.65
2022-08-03T18:34:16.980Z,5.85
2022-08-03T18:36:48.490Z,7.80
2022-08-03T18:39:15.974Z,8.23
2022-08-03T18:49:41.309Z,6.32
2022-08-03T18:52:14.412Z,5.05
2022-08-03T19:04:41.146Z,4.30
2022-08-03T19:07:14.574Z,8.13
2022-08-03T19:09:47.913Z,5.93
2022-08-03T19:12:30.779Z,28.13
2022-08-03T19:15:03.282Z,11.95
2022-08-03T19:19:59.719Z,5.38
2022-08-03T19:22:31.712Z,3.80
2022-08-03T19:25:00.698Z,8.13
2022-08-03T19:29:59.842Z,6.38
2022-08-03T19:32:29.780Z,5.38
2022-08-03T19:34:57.658Z,5.87
2022-08-03T19:37:38.639Z,7.45
2022-08-03T19:40:10.429Z,10.55
2022-08-03T19:42:40.783Z,7.50
2022-08-03T19:45:14.253Z,5.93
2022-08-03T19:47:45.367Z,7.38
2022-08-03T19:50:14.039Z,7.20
2022-08-03T19:52:47.183Z,4.15
2022-08-03T19:55:16.272Z,6.65
2022-08-03T19:57:45.561Z,8.68
2022-08-03T20:02:41.797Z,5.18
2022-08-03T20:05:12.038Z,3.47
2022-08-03T20:07:48.119Z,3.97
2022-08-03T20:10:16.372Z,4.55
2022-08-03T20:12:44.548Z,4.22
2022-08-03T20:15:14.408Z,3.38
2022-08-03T20:17:56.988Z,4.93
2022-08-03T20:20:26.734Z,8.88
2022-08-03T20:22:57.692Z,4.28
2022-08-03T20:25:39.003Z,5.75
2022-08-03T20:28:18.006Z,5.22
2022-08-03T20:30:47.235Z,7.15
2022-08-03T20:33:18.952Z,3.20
2022-08-03T20:35:49.394Z,6.07
2022-08-03T20:38:18.918Z,4.63
2022-08-03T20:40:46.687Z,4.05
2022-08-03T20:43:14.238Z,7.00
2022-08-03T20:46:00.172Z,3.40
2022-08-03T20:48:29.588Z,5.47
2022-08-03T20:50:57.013Z,3.95
2022-08-03T20:53:49.222Z,6.32
2022-08-03T20:56:15.202Z,8.20
2022-08-03T20:58:50.260Z,8.30
2022-08-03T21:01:27.683Z,7.22
2022-08-03T21:03:55.875Z,8.55
2022-08-03T21:06:27.728Z,5.70
2022-08-03T21:09:00.155Z,8.18
2022-08-03T21:11:41.523Z,4.85
2022-08-03T21:12:54.486Z,5.78
2022-08-03T21:14:14.479Z,5.45
2022-08-03T21:16:44.572Z,4.70
2022-08-03T21:19:12.186Z,4.47
2022-08-03T21:21:40.209Z,5.05
2022-08-03T21:24:11.711Z,5.32
2022-08-03T21:26:40.002Z,5.93
2022-08-03T21:29:08.704Z,5.47
2022-08-03T21:31:36.169Z,4.47
2022-08-03T21:34:04.929Z,2.90
2022-08-03T21:36:33.669Z,4.35
2022-08-03T21:39:01.708Z,6.22
2022-08-03T21:41:31.532Z,3.78
2022-08-03T21:43:59.129Z,4.13
2022-08-03T21:46:27.327Z,5.88
2022-08-03T21:48:56.383Z,5.28
2022-08-03T21:51:43.881Z,5.25
2022-08-03T21:54:12.051Z,6.30
2022-08-03T21:56:42.855Z,4.60
2022-08-03T21:59:16.708Z,5.03
2022-08-03T22:01:45.734Z,4.10
2022-08-03T22:04:50.560Z,4.28
2022-08-03T22:07:05.154Z,5.05
2022-08-03T22:09:34.179Z,4.63
2022-08-03T22:12:03.048Z,4.97
2022-08-03T22:14:30.809Z,4.03
2022-08-03T22:16:58.235Z,3.58
2022-08-03T22:19:25.846Z,3.88
2022-08-03T22:21:54.346Z,3.35
2022-08-03T22:24:23.994Z,4.88
2022-08-03T22:27:09.663Z,4.93
2022-08-03T22:29:39.560Z,5.03
2022-08-03T22:32:07.411Z,5.03
2022-08-03T22:34:35.303Z,4.70
2022-08-03T22:37:03.998Z,4.05
2022-08-03T22:39:32.256Z,3.80
2022-08-03T22:42:00.167Z,4.45
2022-08-03T22:44:28.024Z,3.10
2022-08-03T22:46:56.793Z,3.70
2022-08-03T22:49:24.746Z,2.97
2022-08-03T22:51:52.752Z,4.22
2022-08-03T22:54:20.413Z,4.00
2022-08-03T22:56:47.806Z,3.88
2022-08-03T22:59:38.882Z,3.37
2022-08-03T23:02:20.279Z,4.38
2022-08-03T23:04:50.660Z,3.50
2022-08-03T23:07:20.859Z,3.67
2022-08-03T23:09:49.324Z,3.30
2022-08-03T23:12:18.749Z,5.65
2022-08-03T23:14:49.048Z,3.60
2022-08-03T23:17:18.214Z,2.75
2022-08-03T23:19:45.657Z,4.43
2022-08-03T23:22:29.704Z,3.63
2022-08-03T23:24:58.515Z,3.63
2022-08-03T23:27:27.022Z,3.10
2022-08-03T23:29:54.756Z,3.67
2022-08-03T23:32:25.861Z,5.78
2022-08-03T23:35:11.369Z,4.60
2022-08-03T23:38:10.728Z,4.60
2022-08-03T23:40:28.905Z,2.75
2022-08-03T23:42:56.777Z,4.53
2022-08-03T23:45:26.197Z,3.83
2022-08-03T23:47:55.095Z,5.07
2022-08-03T23:50:22.644Z,3.20
2022-08-03T23:52:54.193Z,3.20
2022-08-03T23:55:26.919Z,5.35
2022-08-03T23:58:01.773Z,3.80
